createdAt,value
2022-12-07T00:00:04.573Z,1.50
2022-12-07T00:01:04.234Z,1.44
2022-12-07T00:02:04.204Z,1.44
2022-12-07T00:03:04.260Z,1.38
2022-12-07T00:04:04.066Z,1.38
2022-12-07T00:05:03.978Z,1.38
2022-12-07T00:06:03.987Z,1.31
2022-12-07T00:07:03.909Z,1.31
2022-12-07T00:08:03.891Z,1.31
2022-12-07T00:09:03.820Z,1.31
2022-12-07T00:10:04.071Z,1.25
2022-12-07T00:11:03.743Z,1.25
2022-12-07T00:12:03.664Z,1.25
2022-12-07T00:13:03.580Z,1.19
2022-12-07T00:14:03.499Z,1.19
2022-12-07T00:15:03.414Z,1.19
2022-12-07T00:16:03.597Z,1.19
2022-12-07T00:17:04.613Z,1.19
2022-12-07T00:18:04.474Z,1.12
2022-12-07T00:19:04.301Z,1.12
2022-12-07T00:20:04.555Z,1.12
2022-12-07T00:21:04.134Z,1.12
2022-12-07T00:22:04.067Z,1.12
2022-12-07T00:23:04.067Z,1.06
2022-12-07T00:24:03.999Z,1.06
2022-12-07T00:25:03.821Z,1.06
2022-12-07T00:26:03.902Z,1.06
2022-12-07T00:27:03.904Z,1.06
2022-12-07T00:28:03.744Z,1.06
2022-12-07T00:29:03.824Z,1.06
2022-12-07T00:30:04.229Z,1.06
2022-12-07T00:31:03.748Z,1.06
2022-12-07T00:32:03.874Z,1.06
2022-12-07T00:33:03.837Z,1.06
2022-12-07T00:34:03.747Z,1.06
2022-12-07T00:35:03.745Z,1.00
2022-12-07T00:36:03.577Z,1.06
2022-12-07T00:37:03.498Z,1.06
2022-12-07T00:38:03.506Z,1.00
2022-12-07T00:39:04.380Z,1.00
2022-12-07T00:40:04.570Z,1.00
2022-12-07T00:41:04.309Z,1.00
2022-12-07T00:42:04.217Z,1.00
2022-12-07T00:43:04.062Z,1.00
2022-12-07T00:44:03.993Z,1.00
2022-12-07T00:45:03.905Z,1.00
2022-12-07T00:46:03.953Z,1.00
2022-12-07T00:47:03.838Z,1.00
2022-12-07T00:48:03.737Z,1.00
2022-12-07T00:49:03.654Z,1.00
2022-12-07T00:50:04.166Z,0.94
2022-12-07T00:51:03.659Z,0.94
2022-12-07T00:52:03.659Z,0.94
2022-12-07T00:53:03.664Z,0.94
2022-12-07T00:54:03.576Z,0.94
2022-12-07T00:55:03.510Z,0.94
2022-12-07T00:56:04.389Z,0.94
2022-12-07T00:57:04.294Z,0.94
2022-12-07T00:58:04.223Z,0.88
2022-12-07T00:59:04.307Z,0.88
2022-12-07T01:00:04.426Z,0.88
2022-12-07T01:01:04.283Z,0.88
2022-12-07T01:02:04.139Z,0.88
2022-12-07T01:03:04.140Z,0.81
2022-12-07T01:04:03.995Z,0.81
2022-12-07T01:05:04.073Z,0.81
2022-12-07T01:06:04.067Z,0.81
2022-12-07T01:07:04.073Z,0.81
2022-12-07T01:08:03.960Z,0.75
2022-12-07T01:09:03.905Z,0.75
2022-12-07T01:10:04.301Z,0.75
2022-12-07T01:11:04.059Z,0.69
2022-12-07T01:12:04.141Z,0.69
2022-12-07T01:13:04.144Z,0.69
2022-12-07T01:14:03.986Z,0.62
2022-12-07T01:15:03.979Z,0.62
2022-12-07T01:16:03.985Z,0.62
2022-12-07T01:17:03.931Z,0.62
2022-12-07T01:18:03.824Z,0.56
2022-12-07T01:19:03.668Z,0.56
2022-12-07T01:20:04.060Z,0.56
2022-12-07T01:21:03.738Z,0.56
2022-12-07T01:22:03.747Z,0.50
2022-12-07T01:23:03.664Z,0.50
2022-12-07T01:24:03.743Z,0.50
2022-12-07T01:25:03.672Z,0.44
2022-12-07T01:26:03.544Z,0.44
2022-12-07T01:27:03.496Z,0.38
2022-12-07T01:28:03.503Z,0.38
2022-12-07T01:29:04.381Z,0.38
2022-12-07T01:30:04.535Z,0.38
2022-12-07T01:31:04.256Z,0.31
2022-12-07T01:32:04.222Z,0.31
2022-12-07T01:33:04.071Z,0.31
2022-12-07T01:34:03.983Z,0.31
2022-12-07T01:35:03.909Z,0.25
2022-12-07T01:36:03.816Z,0.25
2022-12-07T01:37:03.668Z,0.25
2022-12-07T01:38:04.390Z,0.19
2022-12-07T01:39:04.221Z,0.19
2022-12-07T01:40:04.410Z,0.19
2022-12-07T01:41:04.145Z,0.12
2022-12-07T01:42:04.151Z,0.12
2022-12-07T01:43:04.064Z,0.12
2022-12-07T01:44:04.061Z,0.12
2022-12-07T01:45:03.995Z,0.12
2022-12-07T01:46:04.095Z,0.06
2022-12-07T01:47:03.987Z,0.06
2022-12-07T01:48:03.910Z,0.06
2022-12-07T01:49:03.827Z,0.06
2022-12-07T01:50:04.013Z,0.00
2022-12-07T01:51:03.816Z,0.00
2022-12-07T01:52:03.758Z,0.00
2022-12-07T01:53:03.664Z,0.00
2022-12-07T01:54:03.668Z,0.00
2022-12-07T01:55:03.740Z,-0.06
2022-12-07T01:56:03.830Z,-0.06
2022-12-07T01:57:03.663Z,-0.06
2022-12-07T01:58:03.584Z,-0.06
2022-12-07T01:59:03.580Z,-0.06
2022-12-07T02:00:03.807Z,-0.06
2022-12-07T02:01:04.456Z,-0.12
2022-12-07T02:02:04.413Z,-0.12
2022-12-07T02:03:04.363Z,-0.12
2022-12-07T02:04:04.305Z,-0.12
2022-12-07T02:05:04.387Z,-0.12
2022-12-07T02:06:04.297Z,-0.12
2022-12-07T02:07:04.373Z,-0.12
2022-12-07T02:08:04.429Z,-0.19
2022-12-07T02:09:04.234Z,-0.19
2022-12-07T02:10:04.469Z,-0.19
2022-12-07T02:11:04.223Z,-0.19
2022-12-07T02:12:04.227Z,-0.19
2022-12-07T02:13:04.138Z,-0.19
2022-12-07T02:14:04.065Z,-0.19
2022-12-07T02:15:04.145Z,-0.19
2022-12-07T02:16:04.135Z,-0.19
2022-12-07T02:17:04.146Z,-0.19
2022-12-07T02:18:04.060Z,-0.19
2022-12-07T02:19:03.977Z,-0.19
2022-12-07T02:20:04.132Z,-0.19
2022-12-07T02:21:03.823Z,-0.19
2022-12-07T02:22:03.772Z,-0.19
2022-12-07T02:23:03.700Z,-0.19
2022-12-07T02:24:03.660Z,-0.19
2022-12-07T02:25:03.657Z,-0.19
2022-12-07T02:26:03.579Z,-0.19
2022-12-07T02:27:03.513Z,-0.19
2022-12-07T02:28:03.424Z,-0.19
2022-12-07T02:29:04.382Z,-0.19
2022-12-07T02:30:04.545Z,-0.19
2022-12-07T02:31:04.384Z,-0.12
2022-12-07T02:32:04.217Z,-0.12
2022-12-07T02:33:04.256Z,-0.12
2022-12-07T02:34:04.059Z,-0.12
2022-12-07T02:35:04.055Z,-0.12
2022-12-07T02:36:04.060Z,-0.12
2022-12-07T02:37:03.900Z,-0.12
2022-12-07T02:38:04.004Z,-0.12
2022-12-07T02:39:03.831Z,-0.12
2022-12-07T02:40:04.024Z,-0.19
2022-12-07T02:41:03.739Z,-0.19
2022-12-07T02:42:03.825Z,-0.19
2022-12-07T02:43:03.652Z,-0.19
2022-12-07T02:44:03.754Z,-0.19
2022-12-07T02:45:03.742Z,-0.19
2022-12-07T02:46:03.618Z,-0.19
2022-12-07T02:47:03.584Z,-0.19
2022-12-07T02:48:03.573Z,-0.19
2022-12-07T02:49:03.502Z,-0.19
2022-12-07T02:50:03.702Z,-0.19
2022-12-07T02:51:04.373Z,-0.19
2022-12-07T02:52:04.298Z,-0.19
2022-12-07T02:53:04.224Z,-0.19
2022-12-07T02:54:04.138Z,-0.19
2022-12-07T02:55:04.059Z,-0.19
2022-12-07T02:56:04.060Z,-0.19
2022-12-07T02:57:03.907Z,-0.19
2022-12-07T02:58:03.980Z,-0.19
2022-12-07T02:59:03.908Z,-0.19
2022-12-07T03:00:04.178Z,-0.19
2022-12-07T03:01:03.740Z,-0.19
2022-12-07T03:02:03.942Z,-0.19
2022-12-07T03:03:03.766Z,-0.19
2022-12-07T03:04:03.774Z,-0.12
2022-12-07T03:05:03.669Z,-0.12
2022-12-07T03:06:03.745Z,-0.12
2022-12-07T03:07:03.579Z,-0.12
2022-12-07T03:08:03.726Z,-0.12
2022-12-07T03:09:03.662Z,-0.12
2022-12-07T03:10:03.827Z,-0.12
2022-12-07T03:11:03.501Z,-0.12
2022-12-07T03:12:04.379Z,-0.06
2022-12-07T03:13:04.305Z,-0.06
2022-12-07T03:14:04.307Z,-0.06
2022-12-07T03:15:04.301Z,-0.06
2022-12-07T03:16:04.366Z,-0.06
2022-12-07T03:17:04.304Z,-0.06
2022-12-07T03:18:04.311Z,0.00
2022-12-07T03:19:04.303Z,0.00
2022-12-07T03:20:04.419Z,0.00
2022-12-07T03:21:04.152Z,0.00
2022-12-07T03:22:04.148Z,0.00
2022-12-07T03:23:04.067Z,0.00
2022-12-07T03:24:03.981Z,0.00
2022-12-07T03:25:03.899Z,0.06
2022-12-07T03:26:03.818Z,0.06
2022-12-07T03:27:03.829Z,0.06
2022-12-07T03:28:03.742Z,0.06
2022-12-07T03:29:03.696Z,0.06
2022-12-07T03:30:03.769Z,0.12
2022-12-07T03:31:03.560Z,0.12
2022-12-07T03:32:03.505Z,0.12
2022-12-07T03:33:03.517Z,0.12
2022-12-07T03:34:04.384Z,0.12
2022-12-07T03:35:04.300Z,0.12
2022-12-07T03:36:04.220Z,0.12
2022-12-07T03:37:04.241Z,0.19
2022-12-07T03:38:04.140Z,0.12
2022-12-07T03:39:04.145Z,0.19
2022-12-07T03:40:04.290Z,0.19
2022-12-07T03:41:04.062Z,0.19
2022-12-07T03:42:03.989Z,0.19
2022-12-07T03:43:04.071Z,0.19
2022-12-07T03:44:03.904Z,0.19
2022-12-07T03:45:03.828Z,0.19
2022-12-07T03:46:03.922Z,0.19
2022-12-07T03:47:03.932Z,0.19
2022-12-07T03:48:03.869Z,0.25
2022-12-07T03:49:03.745Z,0.25
2022-12-07T03:50:03.961Z,0.25
2022-12-07T03:51:03.744Z,0.25
2022-12-07T03:52:03.744Z,0.25
2022-12-07T03:53:03.735Z,0.25
2022-12-07T03:54:03.734Z,0.25
2022-12-07T03:55:03.702Z,0.25
2022-12-07T03:56:03.764Z,0.25
2022-12-07T03:57:03.655Z,0.25
2022-12-07T03:58:03.583Z,0.25
2022-12-07T03:59:03.593Z,0.25
2022-12-07T04:00:03.640Z,0.25
2022-12-07T04:01:03.577Z,0.25
2022-12-07T04:02:03.605Z,0.31
2022-12-07T04:03:03.471Z,0.31
2022-12-07T04:04:03.504Z,0.31
2022-12-07T04:05:04.383Z,0.31
2022-12-07T04:06:04.462Z,0.31
2022-12-07T04:07:04.384Z,0.31
2022-12-07T04:08:04.351Z,0.31
2022-12-07T04:09:04.229Z,0.31
2022-12-07T04:10:04.448Z,0.31
2022-12-07T04:11:04.230Z,0.31
2022-12-07T04:12:04.242Z,0.38
2022-12-07T04:13:04.141Z,0.38
2022-12-07T04:14:04.063Z,0.38
2022-12-07T04:15:04.060Z,0.38
2022-12-07T04:16:04.046Z,0.38
2022-12-07T04:17:03.981Z,0.38
2022-12-07T04:18:03.981Z,0.38
2022-12-07T04:19:03.987Z,0.38
2022-12-07T04:20:04.299Z,0.38
2022-12-07T04:21:03.898Z,0.44
2022-12-07T04:22:03.912Z,0.44
2022-12-07T04:23:03.987Z,0.44
2022-12-07T04:24:04.079Z,0.44
2022-12-07T04:25:03.994Z,0.44
2022-12-07T04:26:04.085Z,0.44
2022-12-07T04:27:03.990Z,0.44
2022-12-07T04:28:03.923Z,0.44
2022-12-07T04:29:07.550Z,0.44
2022-12-07T04:30:04.320Z,0.50
2022-12-07T04:31:03.814Z,0.50
2022-12-07T04:32:03.701Z,0.50
2022-12-07T04:33:03.886Z,0.50
2022-12-07T04:34:03.859Z,0.50
2022-12-07T04:35:03.791Z,0.50
2022-12-07T04:36:03.753Z,0.50
2022-12-07T04:37:03.662Z,0.50
2022-12-07T04:38:03.928Z,0.50
2022-12-07T04:39:03.698Z,0.50
2022-12-07T04:40:03.910Z,0.50
2022-12-07T04:41:03.543Z,0.56
2022-12-07T04:42:03.586Z,0.56
2022-12-07T04:43:03.423Z,0.56
2022-12-07T04:44:03.506Z,0.56
2022-12-07T04:45:04.520Z,0.56
2022-12-07T04:46:03.596Z,0.56
2022-12-07T04:47:03.601Z,0.56
2022-12-07T04:48:04.386Z,0.56
2022-12-07T04:49:04.386Z,0.56
2022-12-07T04:50:04.659Z,0.56
2022-12-07T04:51:04.663Z,0.62
2022-12-07T04:52:04.309Z,0.62
2022-12-07T04:53:04.332Z,0.62
2022-12-07T04:54:04.235Z,0.62
2022-12-07T04:55:04.195Z,0.62
2022-12-07T04:56:04.156Z,0.62
2022-12-07T04:57:04.095Z,0.62
2022-12-07T04:58:03.991Z,0.62
2022-12-07T04:59:03.990Z,0.62
2022-12-07T05:00:04.017Z,0.62
2022-12-07T05:01:04.075Z,0.62
2022-12-07T05:02:04.102Z,0.62
2022-12-07T05:03:03.988Z,0.62
2022-12-07T05:04:04.212Z,0.62
2022-12-07T05:05:04.063Z,0.69
2022-12-07T05:06:06.011Z,0.69
2022-12-07T05:07:04.138Z,0.69
2022-12-07T05:08:04.066Z,0.69
2022-12-07T05:09:04.064Z,0.69
2022-12-07T05:10:04.377Z,0.69
2022-12-07T05:11:03.943Z,0.69
2022-12-07T05:12:03.988Z,0.69
2022-12-07T05:13:03.986Z,0.69
2022-12-07T05:14:03.986Z,0.69
2022-12-07T05:15:03.976Z,0.69
2022-12-07T05:16:03.970Z,0.69
2022-12-07T05:17:03.902Z,0.69
2022-12-07T05:18:03.816Z,0.69
2022-12-07T05:19:03.819Z,0.69
2022-12-07T05:20:04.106Z,0.69
2022-12-07T05:21:03.597Z,0.69
2022-12-07T05:22:03.768Z,0.75
2022-12-07T05:23:03.587Z,0.75
2022-12-07T05:24:03.599Z,0.75
2022-12-07T05:25:03.850Z,0.75
2022-12-07T05:26:08.588Z,0.75
2022-12-07T05:27:03.504Z,0.75
2022-12-07T05:28:03.597Z,0.75
2022-12-07T05:29:03.595Z,0.75
2022-12-07T05:30:03.711Z,0.75
2022-12-07T05:31:04.391Z,0.75
2022-12-07T05:32:04.484Z,0.75
2022-12-07T05:33:04.241Z,0.75
2022-12-07T05:34:04.243Z,0.75
2022-12-07T05:35:04.229Z,0.81
2022-12-07T05:36:04.308Z,0.75
2022-12-07T05:37:04.468Z,0.81
2022-12-07T05:38:04.385Z,0.81
2022-12-07T05:39:04.333Z,0.81
2022-12-07T05:40:03.885Z,0.81
2022-12-07T05:41:03.808Z,0.81
2022-12-07T05:42:03.517Z,0.81
2022-12-07T05:43:04.655Z,0.81
2022-12-07T05:44:04.405Z,0.81
2022-12-07T05:45:03.518Z,0.81
2022-12-07T05:46:04.607Z,0.81
2022-12-07T05:47:04.397Z,0.81
2022-12-07T05:48:04.343Z,0.81
2022-12-07T05:49:04.231Z,0.81
2022-12-07T05:50:04.360Z,0.81
2022-12-07T05:51:04.153Z,0.81
2022-12-07T05:52:04.082Z,0.88
2022-12-07T05:53:04.088Z,0.88
2022-12-07T05:54:03.999Z,0.88
2022-12-07T05:55:03.984Z,0.88
2022-12-07T05:56:03.979Z,0.88
2022-12-07T05:57:03.909Z,0.88
2022-12-07T05:58:03.923Z,0.88
2022-12-07T05:59:03.824Z,0.88
2022-12-07T06:00:04.100Z,0.88
2022-12-07T06:01:03.752Z,0.88
2022-12-07T06:02:03.747Z,0.88
2022-12-07T06:03:03.734Z,0.88
2022-12-07T06:04:03.654Z,0.88
2022-12-07T06:05:03.753Z,0.88
2022-12-07T06:06:03.704Z,0.94
2022-12-07T06:07:03.660Z,0.94
2022-12-07T06:08:06.013Z,0.94
2022-12-07T06:09:03.589Z,0.94
2022-12-07T06:10:03.797Z,0.94
2022-12-07T06:11:03.818Z,0.94
2022-12-07T06:12:03.543Z,0.94
2022-12-07T06:13:04.385Z,0.94
2022-12-07T06:14:04.464Z,0.94
2022-12-07T06:15:04.303Z,0.94
2022-12-07T06:16:04.369Z,0.94
2022-12-07T06:17:04.349Z,0.94
2022-12-07T06:18:04.306Z,0.94
2022-12-07T06:19:04.238Z,0.94
2022-12-07T06:20:04.434Z,0.94
2022-12-07T06:21:04.152Z,0.94
2022-12-07T06:22:04.158Z,0.94
2022-12-07T06:23:04.062Z,1.00
2022-12-07T06:24:04.105Z,1.00
2022-12-07T06:25:08.290Z,1.00
2022-12-07T06:26:03.926Z,1.00
2022-12-07T06:27:03.897Z,1.00
2022-12-07T06:28:03.839Z,1.00
2022-12-07T06:29:03.670Z,1.00
2022-12-07T06:30:04.153Z,1.00
2022-12-07T06:31:03.606Z,1.00
2022-12-07T06:32:03.594Z,1.00
2022-12-07T06:33:03.530Z,1.00
2022-12-07T06:34:04.393Z,1.00
2022-12-07T06:35:05.215Z,1.00
2022-12-07T06:36:04.230Z,1.00
2022-12-07T06:37:09.173Z,1.00
2022-12-07T06:38:04.082Z,1.00
2022-12-07T06:39:03.987Z,1.06
2022-12-07T06:40:04.318Z,1.06
2022-12-07T06:41:04.229Z,1.06
2022-12-07T06:42:04.148Z,1.06
2022-12-07T06:43:04.152Z,1.06
2022-12-07T06:44:04.083Z,1.06
2022-12-07T06:45:04.476Z,1.06
2022-12-07T06:46:04.168Z,1.06
2022-12-07T06:47:31.694Z,1.06
2022-12-07T06:48:04.097Z,1.06
2022-12-07T06:49:03.983Z,1.06
2022-12-07T06:50:04.334Z,1.06
2022-12-07T06:51:04.068Z,1.06
2022-12-07T06:52:03.902Z,1.06
2022-12-07T06:53:03.838Z,1.06
2022-12-07T06:54:03.825Z,1.06
2022-12-07T06:55:03.903Z,1.06
2022-12-07T06:56:03.911Z,1.06
2022-12-07T06:57:03.825Z,1.06
2022-12-07T06:58:03.751Z,1.06
2022-12-07T06:59:03.671Z,1.06
2022-12-07T07:00:03.951Z,1.06
2022-12-07T07:01:03.482Z,1.06
2022-12-07T07:02:03.517Z,1.06
2022-12-07T07:03:03.506Z,1.06
2022-12-07T07:04:03.518Z,1.06
2022-12-07T07:05:04.472Z,1.06
2022-12-07T07:06:09.341Z,1.06
2022-12-07T07:07:04.257Z,1.06
2022-12-07T07:08:21.725Z,1.12
2022-12-07T07:09:04.175Z,1.12
2022-12-07T07:10:04.450Z,1.12
2022-12-07T07:11:04.081Z,1.12
2022-12-07T07:12:03.906Z,1.12
2022-12-07T07:13:03.908Z,1.12
2022-12-07T07:14:03.913Z,1.12
2022-12-07T07:15:03.830Z,1.12
2022-12-07T07:16:03.846Z,1.12
2022-12-07T07:17:03.961Z,1.12
2022-12-07T07:18:07.682Z,1.12
2022-12-07T07:19:03.905Z,1.12
2022-12-07T07:20:04.171Z,1.12
2022-12-07T07:21:03.755Z,1.12
2022-12-07T07:22:03.745Z,1.12
2022-12-07T07:23:03.748Z,1.12
2022-12-07T07:24:03.834Z,1.12
2022-12-07T07:25:03.744Z,1.12
2022-12-07T07:26:03.672Z,1.12
2022-12-07T07:27:03.693Z,1.12
2022-12-07T07:28:03.588Z,1.12
2022-12-07T07:29:03.510Z,1.12
2022-12-07T07:30:04.777Z,1.12
2022-12-07T07:31:04.454Z,1.19
2022-12-07T07:32:06.789Z,1.19
2022-12-07T07:34:03.511Z,1.19
2022-12-07T07:35:03.667Z,1.19
2022-12-07T07:36:04.410Z,1.19
2022-12-07T07:37:04.360Z,1.19
2022-12-07T07:38:04.265Z,1.19
2022-12-07T07:39:04.148Z,1.19
2022-12-07T07:40:04.649Z,1.25
2022-12-07T07:41:04.229Z,1.25
2022-12-07T07:42:04.139Z,1.25
2022-12-07T07:43:04.063Z,1.25
2022-12-07T07:44:04.071Z,1.25
2022-12-07T07:45:04.088Z,1.25
2022-12-07T07:46:04.009Z,1.25
2022-12-07T07:47:04.012Z,1.31
2022-12-07T07:48:03.986Z,1.31
2022-12-07T07:49:03.902Z,1.31
2022-12-07T07:50:04.178Z,1.31
2022-12-07T07:51:03.833Z,1.31
2022-12-07T07:52:03.905Z,1.31
2022-12-07T07:53:03.823Z,1.31
2022-12-07T07:54:03.833Z,1.38
2022-12-07T07:55:03.758Z,1.38
2022-12-07T07:56:03.665Z,1.38
2022-12-07T07:57:03.670Z,1.38
2022-12-07T07:58:03.983Z,1.38
2022-12-07T07:59:03.904Z,1.38
2022-12-07T08:00:04.085Z,1.38
2022-12-07T08:01:03.771Z,1.38
2022-12-07T08:02:03.774Z,1.44
2022-12-07T08:03:03.672Z,1.44
2022-12-07T08:04:03.585Z,1.44
2022-12-07T08:05:03.960Z,1.44
2022-12-07T08:06:03.990Z,1.44
2022-12-07T08:07:03.983Z,1.44
2022-12-07T08:08:03.963Z,1.44
2022-12-07T08:09:03.904Z,1.44
2022-12-07T08:10:04.196Z,1.44
2022-12-07T08:11:03.829Z,1.44
2022-12-07T08:12:03.829Z,1.50
2022-12-07T08:13:03.746Z,1.50
2022-12-07T08:14:03.746Z,1.50
2022-12-07T08:15:03.590Z,1.50
2022-12-07T08:16:03.595Z,1.50
2022-12-07T08:17:04.467Z,1.50
2022-12-07T08:18:04.380Z,1.50
2022-12-07T08:19:03.448Z,1.50
2022-12-07T08:20:04.751Z,1.50
2022-12-07T08:21:04.383Z,1.56
2022-12-07T08:22:03.514Z,1.56
2022-12-07T08:23:04.388Z,1.56
2022-12-07T08:24:04.341Z,1.56
2022-12-07T08:25:04.224Z,1.56
2022-12-07T08:26:04.067Z,1.62
2022-12-07T08:27:04.147Z,1.62
2022-12-07T08:28:04.071Z,1.62
2022-12-07T08:29:04.075Z,1.69
2022-12-07T08:30:04.222Z,1.69
2022-12-07T08:31:03.960Z,1.69
2022-12-07T08:32:08.075Z,1.75
2022-12-07T08:33:03.826Z,1.75
2022-12-07T08:34:03.754Z,1.75
2022-12-07T08:35:03.742Z,1.81
2022-12-07T08:36:03.669Z,1.81
2022-12-07T08:37:03.519Z,1.81
2022-12-07T08:38:03.432Z,1.88
2022-12-07T08:39:32.249Z,1.88
2022-12-07T08:40:04.788Z,1.88
2022-12-07T08:41:04.301Z,1.94
2022-12-07T08:42:04.260Z,1.94
2022-12-07T08:43:04.168Z,1.94
2022-12-07T08:44:04.161Z,1.94
2022-12-07T08:45:03.988Z,1.94
2022-12-07T08:46:04.091Z,2.00
2022-12-07T08:47:03.982Z,2.00
2022-12-07T08:48:04.067Z,2.00
2022-12-07T08:49:04.074Z,2.00
2022-12-07T08:50:04.182Z,2.06
2022-12-07T08:51:03.903Z,2.06
2022-12-07T08:52:03.982Z,2.06
2022-12-07T08:53:03.916Z,2.06
2022-12-07T08:54:03.930Z,2.06
2022-12-07T08:55:03.748Z,2.06
2022-12-07T08:56:03.909Z,2.12
2022-12-07T08:57:03.751Z,2.12
2022-12-07T08:58:03.744Z,2.12
2022-12-07T08:59:03.666Z,2.12
2022-12-07T09:00:04.026Z,2.19
2022-12-07T09:01:03.582Z,2.19
2022-12-07T09:02:03.751Z,2.19
2022-12-07T09:03:03.681Z,2.25
2022-12-07T09:04:03.584Z,2.25
2022-12-07T09:05:03.586Z,2.25
2022-12-07T09:06:03.759Z,2.31
2022-12-07T09:07:03.601Z,2.31
2022-12-07T09:08:04.456Z,2.38
2022-12-07T09:09:04.405Z,2.38
2022-12-07T09:10:04.563Z,2.38
2022-12-07T09:11:04.391Z,2.44
2022-12-07T09:12:04.221Z,2.44
2022-12-07T09:13:04.152Z,2.44
2022-12-07T09:14:04.059Z,2.50
2022-12-07T09:15:03.987Z,2.50
2022-12-07T09:16:03.923Z,2.50
2022-12-07T09:17:03.903Z,2.50
2022-12-07T09:18:03.912Z,2.56
2022-12-07T09:19:04.389Z,2.56
2022-12-07T09:20:03.594Z,2.56
2022-12-07T09:21:03.590Z,2.62
2022-12-07T09:22:03.516Z,2.62
2022-12-07T09:23:04.482Z,2.62
2022-12-07T09:24:04.463Z,2.69
2022-12-07T09:25:04.313Z,2.69
2022-12-07T09:26:09.057Z,2.69
2022-12-07T09:27:04.227Z,2.75
2022-12-07T09:28:04.257Z,2.75
2022-12-07T09:29:04.144Z,2.75
2022-12-07T09:30:04.301Z,2.81
2022-12-07T09:31:24.639Z,2.81
2022-12-07T09:32:08.382Z,2.81
2022-12-07T09:33:03.843Z,2.88
2022-12-07T09:34:03.878Z,2.88
2022-12-07T09:35:03.740Z,2.94
2022-12-07T09:36:03.756Z,2.94
2022-12-07T09:37:03.741Z,2.94
2022-12-07T09:38:03.666Z,3.00
2022-12-07T09:39:03.752Z,3.00
2022-12-07T09:40:04.751Z,3.00
2022-12-07T09:41:03.903Z,3.06
2022-12-07T09:42:03.748Z,3.06
2022-12-07T09:43:03.866Z,3.06
2022-12-07T09:44:03.661Z,3.06
2022-12-07T09:45:03.675Z,3.06
2022-12-07T09:46:03.724Z,3.12
2022-12-07T09:47:03.659Z,3.12
2022-12-07T09:48:03.494Z,3.12
2022-12-07T09:49:03.665Z,3.12
2022-12-07T09:50:03.912Z,3.19
2022-12-07T09:51:03.807Z,3.19
2022-12-07T09:52:03.670Z,3.19
2022-12-07T09:53:03.612Z,3.19
2022-12-07T09:54:03.594Z,3.19
2022-12-07T09:55:03.832Z,3.19
2022-12-07T09:56:03.675Z,3.19
2022-12-07T09:57:03.505Z,3.25
2022-12-07T09:58:03.547Z,3.25
2022-12-07T09:59:03.514Z,3.25
2022-12-07T10:00:03.498Z,3.25
2022-12-07T10:01:04.385Z,3.31
2022-12-07T10:02:04.405Z,3.31
2022-12-07T10:03:04.308Z,3.31
2022-12-07T10:04:04.138Z,3.31
2022-12-07T10:05:04.491Z,3.31
2022-12-07T10:06:04.150Z,3.31
2022-12-07T10:07:04.063Z,3.31
2022-12-07T10:08:04.149Z,3.38
2022-12-07T10:09:04.065Z,3.38
2022-12-07T10:10:04.011Z,3.44
2022-12-07T10:11:03.980Z,3.44
2022-12-07T10:12:03.903Z,3.44
2022-12-07T10:13:03.831Z,3.44
2022-12-07T10:14:03.743Z,3.44
2022-12-07T10:15:18.816Z,3.44
2022-12-07T10:16:07.078Z,3.50
2022-12-07T10:17:03.748Z,3.50
2022-12-07T10:18:03.663Z,3.50
2022-12-07T10:19:03.980Z,3.50
2022-12-07T10:20:03.829Z,3.50
2022-12-07T10:21:03.988Z,3.56
2022-12-07T10:22:03.900Z,3.56
2022-12-07T10:23:03.900Z,3.56
2022-12-07T10:24:03.858Z,3.56
2022-12-07T10:25:03.948Z,3.56
2022-12-07T10:26:03.820Z,3.56
2022-12-07T10:27:03.832Z,3.56
2022-12-07T10:28:03.751Z,3.56
2022-12-07T10:29:03.746Z,3.56
2022-12-07T10:30:03.588Z,3.62
2022-12-07T10:31:03.720Z,3.62
2022-12-07T10:32:03.751Z,3.62
2022-12-07T10:33:03.666Z,3.62
2022-12-07T10:34:03.584Z,3.62
2022-12-07T10:35:03.820Z,3.62
2022-12-07T10:36:03.593Z,3.62
2022-12-07T10:37:03.585Z,3.62
2022-12-07T10:38:03.498Z,3.62
2022-12-07T10:39:04.478Z,3.62
2022-12-07T10:40:04.403Z,3.62
2022-12-07T10:41:03.436Z,3.69
2022-12-07T10:42:03.509Z,3.62
2022-12-07T10:43:03.504Z,3.69
2022-12-07T10:44:04.382Z,3.69
2022-12-07T10:45:03.707Z,3.69
2022-12-07T10:46:04.325Z,3.69
2022-12-07T10:47:03.469Z,3.69
2022-12-07T10:48:03.503Z,3.69
2022-12-07T10:49:03.501Z,3.69
2022-12-07T10:50:03.606Z,3.75
2022-12-07T10:51:03.584Z,3.75
2022-12-07T10:52:03.593Z,3.75
2022-12-07T10:53:03.667Z,3.75
2022-12-07T10:54:03.583Z,3.75
2022-12-07T10:55:03.813Z,3.75
2022-12-07T10:56:03.587Z,3.75
2022-12-07T10:57:03.585Z,3.81
2022-12-07T10:58:03.509Z,3.81
2022-12-07T10:59:03.594Z,3.81
2022-12-07T11:00:03.506Z,3.81
2022-12-07T11:01:03.673Z,3.81
2022-12-07T11:02:03.641Z,3.81
2022-12-07T11:03:03.583Z,3.81
2022-12-07T11:04:03.504Z,3.81
2022-12-07T11:05:03.840Z,3.88
2022-12-07T11:06:03.512Z,3.88
2022-12-07T11:07:03.586Z,3.88
2022-12-07T11:08:03.672Z,3.88
2022-12-07T11:09:03.582Z,3.88
2022-12-07T11:10:08.705Z,3.88
2022-12-07T11:11:03.990Z,3.94
2022-12-07T11:12:03.922Z,3.94
2022-12-07T11:13:04.064Z,3.94
2022-12-07T11:14:03.993Z,3.94
2022-12-07T11:15:03.903Z,3.94
2022-12-07T11:16:04.050Z,3.94
2022-12-07T11:17:03.983Z,3.94
2022-12-07T11:18:03.907Z,3.94
2022-12-07T11:19:03.910Z,3.94
2022-12-07T11:20:04.221Z,4.00
2022-12-07T11:21:03.744Z,4.00
2022-12-07T11:22:03.740Z,4.00
2022-12-07T11:23:03.749Z,4.00
2022-12-07T11:24:03.743Z,4.00
2022-12-07T11:25:03.668Z,4.00
2022-12-07T11:26:03.658Z,4.00
2022-12-07T11:27:03.827Z,4.00
2022-12-07T11:28:03.823Z,4.00
2022-12-07T11:29:03.753Z,4.00
2022-12-07T11:30:04.040Z,4.00
2022-12-07T11:31:03.669Z,4.00
2022-12-07T11:32:03.663Z,4.00
2022-12-07T11:33:03.419Z,4.00
2022-12-07T11:34:03.435Z,4.00
2022-12-07T11:35:04.397Z,4.00
2022-12-07T11:36:04.414Z,4.06
2022-12-07T11:37:04.386Z,4.06
2022-12-07T11:38:03.440Z,4.06
2022-12-07T11:39:03.509Z,4.06
2022-12-07T11:40:03.816Z,4.06
2022-12-07T11:41:03.432Z,4.06
2022-12-07T11:42:03.444Z,4.06
2022-12-07T11:43:03.674Z,4.06
2022-12-07T11:44:03.748Z,4.06
2022-12-07T11:45:03.841Z,4.00
2022-12-07T11:46:03.827Z,4.00
2022-12-07T11:47:03.961Z,4.00
2022-12-07T11:48:03.843Z,4.00
2022-12-07T11:49:04.406Z,4.00
2022-12-07T11:50:04.309Z,4.00
2022-12-07T11:51:04.402Z,4.06
2022-12-07T11:52:04.239Z,4.00
2022-12-07T11:53:04.154Z,4.06
2022-12-07T11:54:04.400Z,4.00
2022-12-07T11:55:04.312Z,4.00
2022-12-07T11:56:04.316Z,4.06
2022-12-07T11:57:04.243Z,4.00
2022-12-07T11:58:04.223Z,4.00
2022-12-07T11:59:04.162Z,4.00
2022-12-07T12:00:04.504Z,4.00
2022-12-07T12:01:04.153Z,4.00
2022-12-07T12:02:04.183Z,4.00
2022-12-07T12:03:04.323Z,3.94
2022-12-07T12:04:04.169Z,3.94
2022-12-07T12:05:04.083Z,3.94
2022-12-07T12:06:05.052Z,3.94
2022-12-07T12:10:04.085Z,3.88
2022-12-07T12:11:04.208Z,3.88
2022-12-07T12:15:03.997Z,3.81
2022-12-07T12:19:03.645Z,3.81
2022-12-07T12:20:03.527Z,3.75
2022-12-07T12:21:04.480Z,3.75
2022-12-07T12:25:04.770Z,3.81
2022-12-07T12:26:04.375Z,3.81
2022-12-07T12:27:04.334Z,3.81
2022-12-07T12:28:04.342Z,3.81
2022-12-07T12:32:08.957Z,3.81
2022-12-07T12:36:04.268Z,3.88
2022-12-07T12:37:04.184Z,3.88
2022-12-07T12:39:04.011Z,3.88
2022-12-07T12:41:03.934Z,3.88
2022-12-07T12:41:09.091Z,3.88
2022-12-07T12:44:08.902Z,3.88
2022-12-07T12:45:04.100Z,3.88
2022-12-07T12:46:03.914Z,3.88
2022-12-07T12:48:03.944Z,3.88
2022-12-07T12:50:08.564Z,3.88
2022-12-07T12:53:04.132Z,3.88
2022-12-07T12:56:04.079Z,3.94
2022-12-07T13:00:04.159Z,4.00
2022-12-07T13:04:04.019Z,4.06
2022-12-07T13:06:28.042Z,4.06
2022-12-07T13:07:03.924Z,4.06
2022-12-07T13:08:04.044Z,4.06
2022-12-07T13:09:03.905Z,4.12
2022-12-07T13:10:03.822Z,4.06
2022-12-07T13:11:03.835Z,4.12
2022-12-07T13:12:03.754Z,4.06
2022-12-07T13:13:03.830Z,4.12
2022-12-07T13:14:03.829Z,4.06
2022-12-07T13:15:04.075Z,4.06
2022-12-07T13:16:04.091Z,4.12
2022-12-07T13:17:04.017Z,4.06
2022-12-07T13:18:03.822Z,4.06
2022-12-07T13:19:04.197Z,4.06
2022-12-07T13:20:03.931Z,4.06
2022-12-07T13:21:03.972Z,4.06
2022-12-07T13:22:03.835Z,4.06
2022-12-07T13:23:03.989Z,4.06
2022-12-07T13:24:03.996Z,4.12
2022-12-07T13:25:04.070Z,4.12
2022-12-07T13:26:03.827Z,4.12
2022-12-07T13:27:03.926Z,4.12
2022-12-07T13:28:03.750Z,4.12
2022-12-07T13:29:03.838Z,4.12
2022-12-07T13:30:03.784Z,4.12
2022-12-07T13:31:03.713Z,4.12
2022-12-07T13:32:03.752Z,4.12
2022-12-07T13:33:03.992Z,4.19
2022-12-07T13:34:03.993Z,4.19
2022-12-07T13:35:04.231Z,4.19
2022-12-07T13:36:03.911Z,4.19
2022-12-07T13:37:03.920Z,4.19
2022-12-07T13:38:03.916Z,4.19
2022-12-07T13:39:03.832Z,4.19
2022-12-07T13:40:03.826Z,4.19
2022-12-07T13:41:03.836Z,4.19
2022-12-07T13:42:03.745Z,4.19
2022-12-07T13:43:03.701Z,4.19
2022-12-07T13:44:03.976Z,4.12
2022-12-07T13:45:04.004Z,4.12
2022-12-07T13:46:03.816Z,4.12
2022-12-07T13:47:03.693Z,4.12
2022-12-07T13:48:03.694Z,4.12
2022-12-07T13:49:03.589Z,4.12
2022-12-07T13:50:03.517Z,4.06